| Date | Time | Temp. (oF) | Dew Point (oF) | Rel. Hum. (%) | Press. (in.) | Wind Dir. | Wind Speed (mph) | Hourly Rainfall (in.) |
|
|---|---|---|---|---|---|---|---|---|---|
| 1 | 10/28 | 00:00 | 43 | 41 | 96 | 29.89 | NNW | 0 | 0.00 |
| 2 | 10/27 | 23:00 | 44 | 43 | 98 | 29.87 | WNW | 2 | 0.00 |
| 3 | 10/27 | 22:00 | 45 | 44 | 98 | 29.87 | W | 2 | 0.00 |
| 4 | 10/27 | 21:00 | 47 | 45 | 96 | 29.85 | W | 3 | 0.00 |
| 5 | 10/27 | 20:00 | 48 | 47 | 98 | 29.81 | W | 6 | 0.00 |
| 6 | 10/27 | 19:00 | 49 | 49 | 100 | 29.78 | WNW | 6 | 0.00 |
| 7 | 10/27 | 18:00 | 49 | 49 | 100 | 29.75 | W | 3 | 0.08 |
| 8 | 10/27 | 17:00 | 52 | 51 | 100 | 29.70 | WSW | 4 | 0.05 |
| 9 | 10/27 | 16:00 | 53 | 53 | 100 | 29.70 | WNW | 8 | 0.02 |
| 10 | 10/27 | 15:00 | 54 | 54 | 100 | 29.69 | WNW | 2 | 0.18 |
| 11 | 10/27 | 14:00 | 55 | 54 | 100 | 29.70 | SSW | 3 | 0.07 |
| 12 | 10/27 | 13:00 | 57 | 56 | 99 | 29.67 | NNW | 3 | 0.01 |
| 13 | 10/27 | 12:00 | 63 | 63 | 100 | 29.69 | SSW | 4 | 0.00 |
| 14 | 10/27 | 11:00 | 63 | 63 | 100 | 29.73 | S | 5 | 0.00 |
| 15 | 10/27 | 11:55 | 62 | 62 | 100 | 29.73 | S | 6 | 0.00 |
| 16 | 10/27 | 11:55 | 62 | 62 | 100 | 29.73 | S | 5 | 0.00 |
| 17 | miss | miss | miss | miss | miss | miss | miss | miss | |
| 18 | 10/27 | 11:53 | 62 | 62 | 100 | 29.73 | SSW | 10 | 0.00 |
| 19 | miss | miss | miss | miss | miss | miss | miss | miss | |
| 20 | 10/27 | 11:51 | 62 | 62 | 100 | 29.73 | S | 13 | 0.00 |
| 21 | miss | miss | miss | miss | miss | miss | miss | miss | |
| 22 | 10/27 | 11:49 | 62 | 62 | 100 | 29.73 | S | 7 | 0.00 |
| 23 | miss | miss | miss | miss | miss | miss | miss | miss | |
| 24 | 10/27 | 11:47 | 62 | 62 | 100 | 29.73 | S | 6 | 0.00 |
| 25 | miss | miss | miss | miss | miss | miss | miss | miss | |
| 26 | 10/27 | 11:46 | 62 | 62 | 100 | 29.73 | SSW | 5 | 0.00 |
| 27 | miss | miss | miss | miss | miss | miss | miss | miss | |
| 28 | 10/27 | 11:46 | 62 | 62 | 100 | 29.73 | SSW | 5 | 0.00 |
| 29 | miss | miss | miss | miss | miss | miss | miss | miss | |
| 30 | 10/27 | 11:46 | 62 | 62 | 100 | 29.73 | SSW | 5 | 0.00 |
| 31 | miss | miss | miss | miss | miss | miss | miss | miss | |
| 32 | 10/27 | 11:46 | 62 | 62 | 100 | 29.73 | SSW | 5 | 0.00 |
| 33 | miss | miss | miss | miss | miss | miss | miss | miss | |
| 34 | 10/27 | 11:46 | 62 | 62 | 100 | 29.73 | SSW | 5 | 0.00 |
| 35 | miss | miss | miss | miss | miss | miss | miss | miss | |
| 36 | 10/27 | 11:46 | 62 | 62 | 100 | 29.73 | SSW | 5 | 0.00 |
| 37 | miss | miss | miss | miss | miss | miss | miss | miss | |
| 38 | 10/27 | 11:00 | 62 | 62 | 100 | 29.74 | SE | 5 | 0.01 |
| 39 | 10/27 | 10:00 | 61 | 60 | 100 | 29.77 | S | 6 | 0.05 |
| 40 | 10/27 | 09:00 | 62 | 62 | 100 | 29.81 | SE | 4 | 0.04 |
| 41 | 10/27 | 08:00 | 62 | 62 | 100 | 29.84 | SSW | 8 | 0.01 |
| 42 | 10/27 | 07:00 | 62 | 62 | 100 | 29.85 | S | 7 | 0.05 |
| 43 | 10/27 | 06:00 | 62 | 62 | 100 | 29.87 | S | 5 | 0.09 |
| 44 | 10/27 | 05:00 | 62 | 62 | 100 | 29.89 | S | 3 | 0.03 |
| 45 | 10/27 | 04:00 | 61 | 60 | 100 | 29.92 | SSW | 4 | 0.04 |
| 46 | 10/27 | 03:00 | 61 | 60 | 100 | 29.94 | SSW | 2 | 0.05 |
| 47 | 10/27 | 02:00 | 61 | 60 | 100 | 29.96 | S | 5 | 0.06 |
| 48 | 10/27 | 01:00 | 63 | 63 | 100 | 29.98 | S | 5 | 0.14 |
| 49 | 10/27 | 00:00 | 63 | 63 | 100 | 29.99 | SSW | 5 | -0.98 |
| 50 | 10/26 | 23:00 | 64 | 63 | 97 | 30.00 | S | 6 | 0.01 |
| 51 | 10/26 | 22:00 | 65 | 62 | 91 | 30.02 | S | 6 | 0.00 |
| 52 | 10/26 | 21:00 | 66 | 62 | 87 | 30.03 | S | 4 | 0.00 |
| 53 | 10/26 | 20:00 | 66 | 61 | 85 | 30.02 | S | 4 | 0.00 |
| 54 | 10/26 | 19:00 | 67 | 60 | 81 | 30.03 | S | 8 | 0.00 |
| 55 | 10/26 | 18:00 | 68 | 60 | 78 | 30.03 | SSW | 9 | 0.00 |
| 56 | 10/26 | 17:00 | 68 | 60 | 78 | 30.03 | S | 5 | 0.00 |
| 57 | 10/26 | 16:00 | 68 | 61 | 79 | 30.03 | SSW | 3 | 0.00 |
| 58 | 10/26 | 15:00 | 67 | 60 | 79 | 30.06 | SW | 8 | 0.00 |
| 59 | 10/26 | 14:00 | 65 | 59 | 82 | 30.09 | SSW | 5 | 0.00 |
| 60 | 10/26 | 13:00 | 65 | 59 | 83 | 30.13 | S | 7 | 0.00 |
| 61 | 10/26 | 12:00 | 65 | 60 | 84 | 30.16 | SW | 7 | 0.00 |
| 62 | 10/26 | 11:00 | 64 | 60 | 87 | 30.17 | SSE | 9 | 0.00 |
| 63 | 10/26 | 10:00 | 63 | 60 | 90 | 30.20 | SSW | 5 | 0.00 |
| 64 | 10/26 | 09:00 | 62 | 59 | 93 | 30.21 | S | 4 | 0.00 |
| 65 | 10/26 | 08:00 | 61 | 59 | 96 | 30.22 | SSE | 5 | 0.00 |
| 66 | 10/26 | 07:00 | 60 | 59 | 99 | 30.22 | SSW | 4 | 0.00 |
| 67 | 10/26 | 06:00 | 60 | 59 | 100 | 30.24 | S | 5 | 0.00 |
| 68 | 10/26 | 05:00 | 59 | 59 | 100 | 30.24 | S | 5 | 0.00 |
| 69 | 10/26 | 04:00 | 59 | 58 | 98 | 30.26 | S | 7 | 0.00 |
| 70 | 10/26 | 03:00 | 58 | 56 | 95 | 30.28 | SE | 3 | 0.00 |
| 71 | 10/26 | 02:00 | 58 | 55 | 93 | 30.29 | SSE | 1 | 0.00 |
| 72 | 10/26 | 01:00 | 58 | 55 | 91 | 30.31 | S | 2 | 0.00 |